sensor_id;sensor_type;location;lat;lon;timestamp;temperature;humidity
63260;DHT22;49390;51.380;0.098;2022-11-20T00:01:33;7.10;99.90
63260;DHT22;49390;51.380;0.098;2022-11-20T00:04:02;7.10;99.90
63260;DHT22;49390;51.380;0.098;2022-11-20T00:06:29;7.00;99.90
63260;DHT22;49390;51.380;0.098;2022-11-20T00:08:59;7.00;99.90
63260;DHT22;49390;51.380;0.098;2022-11-20T00:11:29;7.00;99.90
63260;DHT22;49390;51.380;0.098;2022-11-20T00:14:00;7.00;99.90
63260;DHT22;49390;51.380;0.098;2022-11-20T00:16:31;7.00;99.90
63260;DHT22;49390;51.380;0.098;2022-11-20T00:19:00;6.90;99.90
63260;DHT22;49390;51.380;0.098;2022-11-20T00:21:29;6.90;99.90
63260;DHT22;49390;51.380;0.098;2022-11-20T00:23:58;6.90;99.90
63260;DHT22;49390;51.380;0.098;2022-11-20T00:26:27;6.90;99.90
63260;DHT22;49390;51.380;0.098;2022-11-20T00:28:58;6.90;99.90
63260;DHT22;49390;51.380;0.098;2022-11-20T00:31:27;6.90;99.90
63260;DHT22;49390;51.380;0.098;2022-11-20T00:33:56;6.90;99.90
63260;DHT22;49390;51.380;0.098;2022-11-20T00:36:26;6.90;99.90
63260;DHT22;49390;51.380;0.098;2022-11-20T00:38:57;6.90;99.90
63260;DHT22;49390;51.380;0.098;2022-11-20T00:41:27;6.90;99.90
63260;DHT22;49390;51.380;0.098;2022-11-20T00:43:57;6.90;99.90
63260;DHT22;49390;51.380;0.098;2022-11-20T00:46:26;6.90;99.90
63260;DHT22;49390;51.380;0.098;2022-11-20T00:48:55;7.00;99.90
63260;DHT22;49390;51.380;0.098;2022-11-20T00:51:25;7.00;99.90
63260;DHT22;49390;51.380;0.098;2022-11-20T00:53:58;7.00;99.90
63260;DHT22;49390;51.380;0.098;2022-11-20T00:56:28;7.00;99.90
63260;DHT22;49390;51.380;0.098;2022-11-20T00:58:59;7.00;99.90
63260;DHT22;49390;51.380;0.098;2022-11-20T01:01:29;7.00;99.90
63260;DHT22;49390;51.380;0.098;2022-11-20T01:03:59;7.00;99.90
63260;DHT22;49390;51.380;0.098;2022-11-20T01:06:29;7.00;99.90
63260;DHT22;49390;51.380;0.098;2022-11-20T01:09:00;7.00;99.90
63260;DHT22;49390;51.380;0.098;2022-11-20T01:11:34;7.00;99.90
63260;DHT22;49390;51.380;0.098;2022-11-20T01:14:06;7.00;99.90
63260;DHT22;49390;51.380;0.098;2022-11-20T01:16:37;7.00;99.90
63260;DHT22;49390;51.380;0.098;2022-11-20T01:19:09;7.10;99.90
63260;DHT22;49390;51.380;0.098;2022-11-20T01:21:44;7.10;99.90
63260;DHT22;49390;51.380;0.098;2022-11-20T01:24:14;7.20;99.90
63260;DHT22;49390;51.380;0.098;2022-11-20T01:26:44;7.20;99.90
63260;DHT22;49390;51.380;0.098;2022-11-20T01:29:21;7.20;99.90
63260;DHT22;49390;51.380;0.098;2022-11-20T01:31:50;7.20;99.90
63260;DHT22;49390;51.380;0.098;2022-11-20T01:34:21;7.30;99.90
63260;DHT22;49390;51.380;0.098;2022-11-20T01:36:51;7.30;99.90
63260;DHT22;49390;51.380;0.098;2022-11-20T01:39:23;7.40;99.90
63260;DHT22;49390;51.380;0.098;2022-11-20T01:41:55;7.40;99.90
63260;DHT22;49390;51.380;0.098;2022-11-20T01:44:47;7.40;99.90
63260;DHT22;49390;51.380;0.098;2022-11-20T01:47:31;7.40;99.90
63260;DHT22;49390;51.380;0.098;2022-11-20T01:50:15;7.40;99.90
63260;DHT22;49390;51.380;0.098;2022-11-20T01:53:03;7.40;99.90
63260;DHT22;49390;51.380;0.098;2022-11-20T01:55:43;7.40;99.90
63260;DHT22;49390;51.380;0.098;2022-11-20T01:58:16;7.50;99.90
63260;DHT22;49390;51.380;0.098;2022-11-20T02:00:44;7.50;99.90
63260;DHT22;49390;51.380;0.098;2022-11-20T02:03:16;7.40;99.90
63260;DHT22;49390;51.380;0.098;2022-11-20T02:06:23;7.40;99.90
63260;DHT22;49390;51.380;0.098;2022-11-20T02:08:52;7.40;99.90
63260;DHT22;49390;51.380;0.098;2022-11-20T02:11:21;7.40;99.90
63260;DHT22;49390;51.380;0.098;2022-11-20T02:13:51;7.40;99.90
63260;DHT22;49390;51.380;0.098;2022-11-20T02:16:25;7.40;99.90
63260;DHT22;49390;51.380;0.098;2022-11-20T02:18:55;7.50;99.90
63260;DHT22;49390;51.380;0.098;2022-11-20T02:21:41;7.50;99.90
63260;DHT22;49390;51.380;0.098;2022-11-20T02:24:17;7.50;99.90
63260;DHT22;49390;51.380;0.098;2022-11-20T02:29:34;7.60;99.90
63260;DHT22;49390;51.380;0.098;2022-11-20T02:32:04;7.60;99.90
63260;DHT22;49390;51.380;0.098;2022-11-20T02:34:32;7.60;99.90
63260;DHT22;49390;51.380;0.098;2022-11-20T02:37:00;7.70;99.90
63260;DHT22;49390;51.380;0.098;2022-11-20T02:39:31;7.70;99.90
63260;DHT22;49390;51.380;0.098;2022-11-20T02:42:00;7.80;99.90
63260;DHT22;49390;51.380;0.098;2022-11-20T02:44:29;7.80;99.90
63260;DHT22;49390;51.380;0.098;2022-11-20T02:46:58;7.80;99.90
63260;DHT22;49390;51.380;0.098;2022-11-20T02:49:29;7.80;99.90
63260;DHT22;49390;51.380;0.098;2022-11-20T02:51:57;7.90;99.90
63260;DHT22;49390;51.380;0.098;2022-11-20T02:54:25;7.80;99.90
63260;DHT22;49390;51.380;0.098;2022-11-20T02:56:54;7.90;99.90
63260;DHT22;49390;51.380;0.098;2022-11-20T02:59:21;8.00;99.90
63260;DHT22;49390;51.380;0.098;2022-11-20T03:01:50;8.00;99.90
63260;DHT22;49390;51.380;0.098;2022-11-20T03:04:18;8.00;99.90
63260;DHT22;49390;51.380;0.098;2022-11-20T03:06:47;8.00;99.90
63260;DHT22;49390;51.380;0.098;2022-11-20T03:09:15;8.00;99.90
63260;DHT22;49390;51.380;0.098;2022-11-20T03:11:44;8.00;99.90
63260;DHT22;49390;51.380;0.098;2022-11-20T03:14:12;8.00;99.90
63260;DHT22;49390;51.380;0.098;2022-11-20T03:16:40;8.10;99.90
63260;DHT22;49390;51.380;0.098;2022-11-20T03:19:08;8.00;99.90
63260;DHT22;49390;51.380;0.098;2022-11-20T03:21:36;8.00;99.90
63260;DHT22;49390;51.380;0.098;2022-11-20T03:24:04;8.00;99.90
63260;DHT22;49390;51.380;0.098;2022-11-20T03:26:32;8.00;99.90
63260;DHT22;49390;51.380;0.098;2022-11-20T03:29:03;8.00;99.90
63260;DHT22;49390;51.380;0.098;2022-11-20T03:31:37;7.90;99.90
63260;DHT22;49390;51.380;0.098;2022-11-20T03:34:09;7.90;99.90
63260;DHT22;49390;51.380;0.098;2022-11-20T03:36:43;7.90;99.90
63260;DHT22;49390;51.380;0.098;2022-11-20T03:39:11;7.90;99.90
63260;DHT22;49390;51.380;0.098;2022-11-20T03:41:41;7.90;99.90
63260;DHT22;49390;51.380;0.098;2022-11-20T03:44:11;7.90;99.90
63260;DHT22;49390;51.380;0.098;2022-11-20T03:46:39;7.90;99.90
63260;DHT22;49390;51.380;0.098;2022-11-20T03:49:08;7.80;99.90
63260;DHT22;49390;51.380;0.098;2022-11-20T03:51:37;7.80;99.90
63260;DHT22;49390;51.380;0.098;2022-11-20T03:54:07;7.90;99.90
63260;DHT22;49390;51.380;0.098;2022-11-20T03:56:37;7.90;99.90
63260;DHT22;49390;51.380;0.098;2022-11-20T03:59:05;7.90;99.90
63260;DHT22;49390;51.380;0.098;2022-11-20T04:01:36;7.80;99.90
63260;DHT22;49390;51.380;0.098;2022-11-20T04:04:05;7.90;99.90
63260;DHT22;49390;51.380;0.098;2022-11-20T04:06:36;7.90;99.90
63260;DHT22;49390;51.380;0.098;2022-11-20T04:09:05;7.90;99.90
63260;DHT22;49390;51.380;0.098;2022-11-20T04:11:36;7.80;99.90
63260;DHT22;49390;51.380;0.098;2022-11-20T04:14:11;7.90;99.90
63260;DHT22;49390;51.380;0.098;2022-11-20T04:16:40;7.80;99.90
63260;DHT22;49390;51.380;0.098;2022-11-20T04:19:15;7.90;99.90
63260;DHT22;49390;51.380;0.098;2022-11-20T04:21:44;7.90;99.90
63260;DHT22;49390;51.380;0.098;2022-11-20T04:24:13;7.90;99.90
63260;DHT22;49390;51.380;0.098;2022-11-20T04:26:41;7.90;99.90
63260;DHT22;49390;51.380;0.098;2022-11-20T04:29:11;7.90;99.90
63260;DHT22;49390;51.380;0.098;2022-11-20T04:31:40;7.90;99.90
63260;DHT22;49390;51.380;0.098;2022-11-20T04:34:11;7.80;99.90
63260;DHT22;49390;51.380;0.098;2022-11-20T04:36:39;7.80;99.90
63260;DHT22;49390;51.380;0.098;2022-11-20T04:39:12;7.80;99.90
63260;DHT22;49390;51.380;0.098;2022-11-20T04:41:42;7.80;99.90
63260;DHT22;49390;51.380;0.098;2022-11-20T04:44:10;7.80;99.90
63260;DHT22;49390;51.380;0.098;2022-11-20T04:46:42;7.80;99.90
63260;DHT22;49390;51.380;0.098;2022-11-20T04:49:11;7.80;99.90
63260;DHT22;49390;51.380;0.098;2022-11-20T04:51:40;7.80;99.90
63260;DHT22;49390;51.380;0.098;2022-11-20T04:54:08;7.80;99.90
63260;DHT22;49390;51.380;0.098;2022-11-20T04:56:38;7.90;99.90
63260;DHT22;49390;51.380;0.098;2022-11-20T04:59:07;7.90;99.90
63260;DHT22;49390;51.380;0.098;2022-11-20T05:01:35;7.90;99.90
63260;DHT22;49390;51.380;0.098;2022-11-20T05:04:03;7.90;99.90
63260;DHT22;49390;51.380;0.098;2022-11-20T05:06:32;7.90;99.90
63260;DHT22;49390;51.380;0.098;2022-11-20T05:09:00;8.00;99.90
63260;DHT22;49390;51.380;0.098;2022-11-20T05:11:29;8.00;99.90
63260;DHT22;49390;51.380;0.098;2022-11-20T05:13:58;8.00;99.90
63260;DHT22;49390;51.380;0.098;2022-11-20T05:16:27;8.00;99.90
63260;DHT22;49390;51.380;0.098;2022-11-20T05:18:55;8.00;99.90
63260;DHT22;49390;51.380;0.098;2022-11-20T05:21:23;8.00;99.90
63260;DHT22;49390;51.380;0.098;2022-11-20T05:23:52;8.00;99.90
63260;DHT22;49390;51.380;0.098;2022-11-20T05:26:21;8.00;99.90
63260;DHT22;49390;51.380;0.098;2022-11-20T05:28:50;8.10;99.90
63260;DHT22;49390;51.380;0.098;2022-11-20T05:31:23;8.10;99.90
63260;DHT22;49390;51.380;0.098;2022-11-20T05:33:56;8.10;99.90
63260;DHT22;49390;51.380;0.098;2022-11-20T05:36:25;8.10;99.90
63260;DHT22;49390;51.380;0.098;2022-11-20T05:38:53;8.10;99.90
63260;DHT22;49390;51.380;0.098;2022-11-20T05:41:28;8.10;99.90
63260;DHT22;49390;51.380;0.098;2022-11-20T05:43:58;8.10;99.90
63260;DHT22;49390;51.380;0.098;2022-11-20T05:46:27;8.10;99.90
63260;DHT22;49390;51.380;0.098;2022-11-20T05:48:57;8.10;99.90
63260;DHT22;49390;51.380;0.098;2022-11-20T05:51:27;8.10;99.90
63260;DHT22;49390;51.380;0.098;2022-11-20T05:53:58;8.10;99.90
63260;DHT22;49390;51.380;0.098;2022-11-20T05:56:26;8.10;99.90
63260;DHT22;49390;51.380;0.098;2022-11-20T05:58:57;8.10;99.90
63260;DHT22;49390;51.380;0.098;2022-11-20T06:01:25;8.20;99.90
63260;DHT22;49390;51.380;0.098;2022-11-20T06:03:54;8.20;99.90
63260;DHT22;49390;51.380;0.098;2022-11-20T06:06:23;8.20;99.90
63260;DHT22;49390;51.380;0.098;2022-11-20T06:08:50;8.20;99.90
63260;DHT22;49390;51.380;0.098;2022-11-20T06:11:18;8.10;99.90
63260;DHT22;49390;51.380;0.098;2022-11-20T06:13:47;8.20;99.90
63260;DHT22;49390;51.380;0.098;2022-11-20T06:16:18;8.20;99.90
63260;DHT22;49390;51.380;0.098;2022-11-20T06:18:47;8.20;99.90
63260;DHT22;49390;51.380;0.098;2022-11-20T06:21:17;8.20;99.90
63260;DHT22;49390;51.380;0.098;2022-11-20T06:23:46;8.30;99.90
63260;DHT22;49390;51.380;0.098;2022-11-20T06:26:17;8.30;99.90
63260;DHT22;49390;51.380;0.098;2022-11-20T06:28:45;8.30;99.90
63260;DHT22;49390;51.380;0.098;2022-11-20T06:31:17;8.30;99.90
63260;DHT22;49390;51.380;0.098;2022-11-20T06:33:45;8.30;99.90
63260;DHT22;49390;51.380;0.098;2022-11-20T06:36:15;8.30;99.90
63260;DHT22;49390;51.380;0.098;2022-11-20T06:38:46;8.30;99.90
63260;DHT22;49390;51.380;0.098;2022-11-20T06:41:17;8.40;99.90
63260;DHT22;49390;51.380;0.098;2022-11-20T06:43:46;8.40;99.90
63260;DHT22;49390;51.380;0.098;2022-11-20T06:46:16;8.50;99.90
63260;DHT22;49390;51.380;0.098;2022-11-20T06:48:48;8.40;99.90
63260;DHT22;49390;51.380;0.098;2022-11-20T06:51:18;8.40;99.90
63260;DHT22;49390;51.380;0.098;2022-11-20T06:53:46;8.40;99.90
63260;DHT22;49390;51.380;0.098;2022-11-20T06:56:14;8.40;99.90
63260;DHT22;49390;51.380;0.098;2022-11-20T06:58:42;8.40;99.90
63260;DHT22;49390;51.380;0.098;2022-11-20T07:01:13;8.40;99.90
63260;DHT22;49390;51.380;0.098;2022-11-20T07:03:41;8.50;99.90
63260;DHT22;49390;51.380;0.098;2022-11-20T07:06:10;8.50;99.90
63260;DHT22;49390;51.380;0.098;2022-11-20T07:08:38;8.60;99.90
63260;DHT22;49390;51.380;0.098;2022-11-20T07:11:07;8.60;99.90
63260;DHT22;49390;51.380;0.098;2022-11-20T07:13:36;8.60;99.90
63260;DHT22;49390;51.380;0.098;2022-11-20T07:16:07;8.60;99.90
63260;DHT22;49390;51.380;0.098;2022-11-20T07:18:35;8.70;99.90
63260;DHT22;49390;51.380;0.098;2022-11-20T07:21:07;8.70;99.90
63260;DHT22;49390;51.380;0.098;2022-11-20T07:23:36;8.80;99.90
63260;DHT22;49390;51.380;0.098;2022-11-20T07:26:09;8.80;99.90
63260;DHT22;49390;51.380;0.098;2022-11-20T07:28:38;8.80;99.90
63260;DHT22;49390;51.380;0.098;2022-11-20T07:31:06;8.80;99.90
63260;DHT22;49390;51.380;0.098;2022-11-20T07:33:35;8.80;99.90
63260;DHT22;49390;51.380;0.098;2022-11-20T07:36:03;8.90;99.90
63260;DHT22;49390;51.380;0.098;2022-11-20T07:38:31;8.90;99.90
63260;DHT22;49390;51.380;0.098;2022-11-20T07:41:00;8.90;99.90
63260;DHT22;49390;51.380;0.098;2022-11-20T07:43:30;8.90;99.90
63260;DHT22;49390;51.380;0.098;2022-11-20T07:46:04;9.00;99.90
63260;DHT22;49390;51.380;0.098;2022-11-20T07:48:32;9.00;99.90
63260;DHT22;49390;51.380;0.098;2022-11-20T07:51:00;9.00;99.90
63260;DHT22;49390;51.380;0.098;2022-11-20T07:53:28;9.00;99.90
63260;DHT22;49390;51.380;0.098;2022-11-20T07:56:01;9.00;99.90
63260;DHT22;49390;51.380;0.098;2022-11-20T07:58:30;8.90;99.90
63260;DHT22;49390;51.380;0.098;2022-11-20T08:01:07;8.90;99.90
63260;DHT22;49390;51.380;0.098;2022-11-20T08:03:36;8.90;99.90
63260;DHT22;49390;51.380;0.098;2022-11-20T08:06:06;8.90;99.90
63260;DHT22;49390;51.380;0.098;2022-11-20T08:08:34;8.90;99.90
63260;DHT22;49390;51.380;0.098;2022-11-20T08:11:09;8.90;99.90
63260;DHT22;49390;51.380;0.098;2022-11-20T08:13:56;8.90;99.90
63260;DHT22;49390;51.380;0.098;2022-11-20T08:16:47;9.00;99.90
63260;DHT22;49390;51.380;0.098;2022-11-20T08:19:18;9.00;99.90
63260;DHT22;49390;51.380;0.098;2022-11-20T08:21:46;8.90;99.90
63260;DHT22;49390;51.380;0.098;2022-11-20T08:24:15;8.90;99.90
63260;DHT22;49390;51.380;0.098;2022-11-20T08:26:43;9.00;99.90
63260;DHT22;49390;51.380;0.098;2022-11-20T08:29:11;9.00;99.90
63260;DHT22;49390;51.380;0.098;2022-11-20T08:31:40;9.00;99.90
63260;DHT22;49390;51.380;0.098;2022-11-20T08:34:28;9.00;99.90
63260;DHT22;49390;51.380;0.098;2022-11-20T08:36:57;9.00;99.90
63260;DHT22;49390;51.380;0.098;2022-11-20T08:39:25;9.00;99.90
63260;DHT22;49390;51.380;0.098;2022-11-20T08:41:55;9.00;99.90
63260;DHT22;49390;51.380;0.098;2022-11-20T08:44:24;9.10;99.90
63260;DHT22;49390;51.380;0.098;2022-11-20T08:46:52;9.10;99.90
63260;DHT22;49390;51.380;0.098;2022-11-20T08:49:22;9.10;99.90
63260;DHT22;49390;51.380;0.098;2022-11-20T08:51:50;9.10;99.90
63260;DHT22;49390;51.380;0.098;2022-11-20T08:54:21;9.10;99.90
63260;DHT22;49390;51.380;0.098;2022-11-20T08:56:50;9.10;99.90
63260;DHT22;49390;51.380;0.098;2022-11-20T08:59:21;9.20;99.90
63260;DHT22;49390;51.380;0.098;2022-11-20T09:02:10;9.20;99.90
63260;DHT22;49390;51.380;0.098;2022-11-20T09:04:39;9.20;99.90
63260;DHT22;49390;51.380;0.098;2022-11-20T09:07:09;9.20;99.90
63260;DHT22;49390;51.380;0.098;2022-11-20T09:09:37;9.20;99.90
63260;DHT22;49390;51.380;0.098;2022-11-20T09:12:05;9.30;99.90
63260;DHT22;49390;51.380;0.098;2022-11-20T09:14:33;9.20;99.90
63260;DHT22;49390;51.380;0.098;2022-11-20T09:17:02;9.20;99.90
63260;DHT22;49390;51.380;0.098;2022-11-20T09:19:30;9.20;99.90
63260;DHT22;49390;51.380;0.098;2022-11-20T09:22:03;9.20;99.90
63260;DHT22;49390;51.380;0.098;2022-11-20T09:24:31;9.30;99.90
63260;DHT22;49390;51.380;0.098;2022-11-20T09:27:02;9.30;99.90
63260;DHT22;49390;51.380;0.098;2022-11-20T09:29:30;9.30;99.90
63260;DHT22;49390;51.380;0.098;2022-11-20T09:31:59;9.40;99.90
63260;DHT22;49390;51.380;0.098;2022-11-20T09:34:27;9.50;99.90
63260;DHT22;49390;51.380;0.098;2022-11-20T09:36:55;9.50;99.90
63260;DHT22;49390;51.380;0.098;2022-11-20T09:39:24;9.60;99.90
63260;DHT22;49390;51.380;0.098;2022-11-20T09:42:08;9.50;99.90
63260;DHT22;49390;51.380;0.098;2022-11-20T09:45:05;9.60;99.90
63260;DHT22;49390;51.380;0.098;2022-11-20T09:50:46;9.50;99.90
63260;DHT22;49390;51.380;0.098;2022-11-20T09:56:03;9.50;99.90
63260;DHT22;49390;51.380;0.098;2022-11-20T09:58:38;9.60;99.90
63260;DHT22;49390;51.380;0.098;2022-11-20T10:01:31;9.50;99.90
63260;DHT22;49390;51.380;0.098;2022-11-20T10:04:19;9.50;99.90
63260;DHT22;49390;51.380;0.098;2022-11-20T10:07:06;9.50;99.90
63260;DHT22;49390;51.380;0.098;2022-11-20T10:10:00;9.50;99.90
63260;DHT22;49390;51.380;0.098;2022-11-20T10:12:56;9.50;99.90
63260;DHT22;49390;51.380;0.098;2022-11-20T10:15:38;9.50;99.90
63260;DHT22;49390;51.380;0.098;2022-11-20T10:31:43;9.80;99.90
63260;DHT22;49390;51.380;0.098;2022-11-20T10:36:54;9.90;99.90
63260;DHT22;49390;51.380;0.098;2022-11-20T10:42:46;10.00;99.90
63260;DHT22;49390;51.380;0.098;2022-11-20T10:48:10;10.00;99.90
63260;DHT22;49390;51.380;0.098;2022-11-20T10:51:31;10.00;99.90
63260;DHT22;49390;51.380;0.098;2022-11-20T10:53:58;10.10;99.90
63260;DHT22;49390;51.380;0.098;2022-11-20T10:56:35;10.10;99.90
63260;DHT22;49390;51.380;0.098;2022-11-20T11:01:52;10.20;99.90
63260;DHT22;49390;51.380;0.098;2022-11-20T11:04:38;10.30;99.90
63260;DHT22;49390;51.380;0.098;2022-11-20T11:09:49;10.40;99.90
63260;DHT22;49390;51.380;0.098;2022-11-20T11:12:19;10.50;99.90
63260;DHT22;49390;51.380;0.098;2022-11-20T11:14:50;10.50;99.90
63260;DHT22;49390;51.380;0.098;2022-11-20T11:17:34;10.50;99.90
63260;DHT22;49390;51.380;0.098;2022-11-20T11:20:17;10.60;99.90
63260;DHT22;49390;51.380;0.098;2022-11-20T11:25:27;10.70;99.90
63260;DHT22;49390;51.380;0.098;2022-11-20T11:28:19;10.80;99.90
63260;DHT22;49390;51.380;0.098;2022-11-20T11:30:48;10.90;99.90
63260;DHT22;49390;51.380;0.098;2022-11-20T11:33:26;10.90;99.90
63260;DHT22;49390;51.380;0.098;2022-11-20T11:35:57;11.00;99.90
63260;DHT22;49390;51.380;0.098;2022-11-20T11:38:34;11.00;99.90
63260;DHT22;49390;51.380;0.098;2022-11-20T11:41:06;11.10;99.90
63260;DHT22;49390;51.380;0.098;2022-11-20T11:43:37;11.10;99.90
63260;DHT22;49390;51.380;0.098;2022-11-20T11:46:34;11.10;99.90
63260;DHT22;49390;51.380;0.098;2022-11-20T11:52:13;11.20;99.90
63260;DHT22;49390;51.380;0.098;2022-11-20T11:54:45;11.20;99.90
63260;DHT22;49390;51.380;0.098;2022-11-20T12:00:02;11.30;99.90
63260;DHT22;49390;51.380;0.098;2022-11-20T12:05:40;11.40;99.90
63260;DHT22;49390;51.380;0.098;2022-11-20T12:15:58;11.60;99.90
63260;DHT22;49390;51.380;0.098;2022-11-20T12:18:28;11.60;99.90
63260;DHT22;49390;51.380;0.098;2022-11-20T12:26:48;11.70;99.90
63260;DHT22;49390;51.380;0.098;2022-11-20T12:32:06;11.80;99.90
63260;DHT22;49390;51.380;0.098;2022-11-20T12:38:50;11.80;99.90
63260;DHT22;49390;51.380;0.098;2022-11-20T12:41:04;11.70;99.90
63260;DHT22;49390;51.380;0.098;2022-11-20T12:44:03;11.70;99.90
63260;DHT22;49390;51.380;0.098;2022-11-20T12:47:12;11.70;99.90
63260;DHT22;49390;51.380;0.098;2022-11-20T12:53:05;11.80;99.90
63260;DHT22;49390;51.380;0.098;2022-11-20T12:56:04;11.80;99.90
63260;DHT22;49390;51.380;0.098;2022-11-20T13:01:44;11.80;99.90
63260;DHT22;49390;51.380;0.098;2022-11-20T13:06:54;11.90;99.90
63260;DHT22;49390;51.380;0.098;2022-11-20T13:09:23;12.00;99.90
63260;DHT22;49390;51.380;0.098;2022-11-20T13:14:55;12.10;99.90
63260;DHT22;49390;51.380;0.098;2022-11-20T13:20:15;12.20;99.90
63260;DHT22;49390;51.380;0.098;2022-11-20T13:22:53;12.20;99.90
63260;DHT22;49390;51.380;0.098;2022-11-20T13:27:59;12.20;99.90
63260;DHT22;49390;51.380;0.098;2022-11-20T13:30:29;12.10;99.90
63260;DHT22;49390;51.380;0.098;2022-11-20T13:33:08;12.10;99.90
63260;DHT22;49390;51.380;0.098;2022-11-20T13:35:55;12.10;99.90
63260;DHT22;49390;51.380;0.098;2022-11-20T13:38:24;12.00;99.90
63260;DHT22;49390;51.380;0.098;2022-11-20T13:41:00;12.00;99.90
63260;DHT22;49390;51.380;0.098;2022-11-20T13:43:52;11.90;99.90
63260;DHT22;49390;51.380;0.098;2022-11-20T13:46:20;11.70;99.90
63260;DHT22;49390;51.380;0.098;2022-11-20T13:48:52;11.70;99.90
63260;DHT22;49390;51.380;0.098;2022-11-20T13:54:22;11.50;99.90
63260;DHT22;49390;51.380;0.098;2022-11-20T13:59:56;11.50;99.90
63260;DHT22;49390;51.380;0.098;2022-11-20T14:02:29;11.50;99.90
63260;DHT22;49390;51.380;0.098;2022-11-20T14:05:01;11.40;99.90
63260;DHT22;49390;51.380;0.098;2022-11-20T14:07:35;11.40;99.90
63260;DHT22;49390;51.380;0.098;2022-11-20T14:10:06;11.30;99.90
63260;DHT22;49390;51.380;0.098;2022-11-20T14:12:46;11.20;99.90
63260;DHT22;49390;51.380;0.098;2022-11-20T14:15:30;11.10;99.90
63260;DHT22;49390;51.380;0.098;2022-11-20T14:18:15;11.00;99.90
63260;DHT22;49390;51.380;0.098;2022-11-20T14:20:43;11.00;99.90
63260;DHT22;49390;51.380;0.098;2022-11-20T14:23:11;11.00;99.90
63260;DHT22;49390;51.380;0.098;2022-11-20T14:25:44;10.90;99.90
63260;DHT22;49390;51.380;0.098;2022-11-20T14:28:33;10.90;99.90
63260;DHT22;49390;51.380;0.098;2022-11-20T14:31:01;10.90;99.90
63260;DHT22;49390;51.380;0.098;2022-11-20T14:33:32;10.90;99.90
63260;DHT22;49390;51.380;0.098;2022-11-20T14:36:01;10.90;99.90
63260;DHT22;49390;51.380;0.098;2022-11-20T14:38:31;11.00;99.90
63260;DHT22;49390;51.380;0.098;2022-11-20T14:41:15;11.00;99.90
63260;DHT22;49390;51.380;0.098;2022-11-20T14:43:56;11.00;99.90
63260;DHT22;49390;51.380;0.098;2022-11-20T14:46:25;11.00;99.90
63260;DHT22;49390;51.380;0.098;2022-11-20T14:48:56;11.00;99.90
63260;DHT22;49390;51.380;0.098;2022-11-20T14:51:38;11.00;99.90
63260;DHT22;49390;51.380;0.098;2022-11-20T14:54:20;11.00;99.90
63260;DHT22;49390;51.380;0.098;2022-11-20T14:58:55;11.10;99.90
63260;DHT22;49390;51.380;0.098;2022-11-20T15:01:29;11.00;99.90
63260;DHT22;49390;51.380;0.098;2022-11-20T15:04:04;11.00;99.90
63260;DHT22;49390;51.380;0.098;2022-11-20T15:06:35;11.00;99.90
63260;DHT22;49390;51.380;0.098;2022-11-20T15:09:04;11.00;99.90
63260;DHT22;49390;51.380;0.098;2022-11-20T15:11:34;11.00;99.90
63260;DHT22;49390;51.380;0.098;2022-11-20T15:14:06;11.00;99.90
63260;DHT22;49390;51.380;0.098;2022-11-20T15:16:35;10.90;99.90
63260;DHT22;49390;51.380;0.098;2022-11-20T15:19:04;10.90;99.90
63260;DHT22;49390;51.380;0.098;2022-11-20T15:21:47;10.90;99.90
63260;DHT22;49390;51.380;0.098;2022-11-20T15:24:16;10.90;99.90
63260;DHT22;49390;51.380;0.098;2022-11-20T15:26:44;10.90;99.90
63260;DHT22;49390;51.380;0.098;2022-11-20T15:29:14;10.80;99.90
63260;DHT22;49390;51.380;0.098;2022-11-20T15:31:46;10.80;99.90
63260;DHT22;49390;51.380;0.098;2022-11-20T15:34:15;10.80;99.90
63260;DHT22;49390;51.380;0.098;2022-11-20T15:36:44;10.70;99.90
63260;DHT22;49390;51.380;0.098;2022-11-20T15:39:12;10.70;99.90
63260;DHT22;49390;51.380;0.098;2022-11-20T15:41:40;10.60;99.90
63260;DHT22;49390;51.380;0.098;2022-11-20T15:44:09;10.60;99.90
63260;DHT22;49390;51.380;0.098;2022-11-20T15:46:40;10.60;99.90
63260;DHT22;49390;51.380;0.098;2022-11-20T15:49:16;10.60;99.90
63260;DHT22;49390;51.380;0.098;2022-11-20T15:51:47;10.50;99.90
63260;DHT22;49390;51.380;0.098;2022-11-20T15:54:20;10.50;99.90
63260;DHT22;49390;51.380;0.098;2022-11-20T15:56:50;10.50;99.90
63260;DHT22;49390;51.380;0.098;2022-11-20T15:59:37;10.50;99.90
63260;DHT22;49390;51.380;0.098;2022-11-20T16:02:11;10.50;99.90
63260;DHT22;49390;51.380;0.098;2022-11-20T16:04:46;10.40;99.90
63260;DHT22;49390;51.380;0.098;2022-11-20T16:07:14;10.40;99.90
63260;DHT22;49390;51.380;0.098;2022-11-20T16:09:43;10.40;99.90
63260;DHT22;49390;51.380;0.098;2022-11-20T16:12:11;10.40;99.90
63260;DHT22;49390;51.380;0.098;2022-11-20T16:14:58;10.30;99.90
63260;DHT22;49390;51.380;0.098;2022-11-20T16:17:47;10.30;99.90
63260;DHT22;49390;51.380;0.098;2022-11-20T16:20:15;10.20;99.90
63260;DHT22;49390;51.380;0.098;2022-11-20T16:22:43;10.20;99.90
63260;DHT22;49390;51.380;0.098;2022-11-20T16:25:11;10.20;99.90
63260;DHT22;49390;51.380;0.098;2022-11-20T16:27:40;10.20;99.90
63260;DHT22;49390;51.380;0.098;2022-11-20T16:30:09;10.10;99.90
63260;DHT22;49390;51.380;0.098;2022-11-20T16:32:37;10.10;99.90
63260;DHT22;49390;51.380;0.098;2022-11-20T16:35:06;10.10;99.90
63260;DHT22;49390;51.380;0.098;2022-11-20T16:37:35;10.10;99.90
63260;DHT22;49390;51.380;0.098;2022-11-20T16:40:03;10.10;99.90
63260;DHT22;49390;51.380;0.098;2022-11-20T16:42:33;10.10;99.90
63260;DHT22;49390;51.380;0.098;2022-11-20T16:45:02;10.10;99.90
63260;DHT22;49390;51.380;0.098;2022-11-20T16:47:34;10.10;99.90
63260;DHT22;49390;51.380;0.098;2022-11-20T16:50:04;10.10;99.90
63260;DHT22;49390;51.380;0.098;2022-11-20T16:52:34;10.10;99.90
63260;DHT22;49390;51.380;0.098;2022-11-20T16:55:05;10.10;99.90
63260;DHT22;49390;51.380;0.098;2022-11-20T16:57:36;10.10;99.90
63260;DHT22;49390;51.380;0.098;2022-11-20T17:00:05;10.10;99.90
63260;DHT22;49390;51.380;0.098;2022-11-20T17:02:34;10.10;99.90
63260;DHT22;49390;51.380;0.098;2022-11-20T17:05:04;10.00;99.90
63260;DHT22;49390;51.380;0.098;2022-11-20T17:07:35;10.00;99.90
63260;DHT22;49390;51.380;0.098;2022-11-20T17:10:04;10.00;99.90
63260;DHT22;49390;51.380;0.098;2022-11-20T17:12:33;10.00;99.90
63260;DHT22;49390;51.380;0.098;2022-11-20T17:15:01;10.00;99.90
63260;DHT22;49390;51.380;0.098;2022-11-20T17:17:29;10.00;99.90
63260;DHT22;49390;51.380;0.098;2022-11-20T17:19:57;10.00;99.90
63260;DHT22;49390;51.380;0.098;2022-11-20T17:22:25;10.00;99.90
63260;DHT22;49390;51.380;0.098;2022-11-20T17:24:54;9.90;99.90
63260;DHT22;49390;51.380;0.098;2022-11-20T17:27:23;10.00;99.90
63260;DHT22;49390;51.380;0.098;2022-11-20T17:29:51;10.00;99.90
63260;DHT22;49390;51.380;0.098;2022-11-20T17:32:21;10.00;99.90
63260;DHT22;49390;51.380;0.098;2022-11-20T17:34:50;10.00;99.90
63260;DHT22;49390;51.380;0.098;2022-11-20T17:37:18;10.00;99.90
63260;DHT22;49390;51.380;0.098;2022-11-20T17:39:46;10.00;99.90
63260;DHT22;49390;51.380;0.098;2022-11-20T17:42:15;10.00;99.90
63260;DHT22;49390;51.380;0.098;2022-11-20T17:45:03;10.00;99.90